カイロ の空港の天気 - METARとTAF

カイロ国際空港 ( HECA / CAI ) - エジプト [カイロ
飛行場実況気象(Metar)
観測時間01/19 13:00 EET (01/19 11:00 UTC)
風向・風速北東 6m/s
視程10km以上
天気現象
全天の4割程度の雲 雲底高度 760m
気温18℃
湿度49%
気圧1020hPa
METARHECA 191100Z 04012KT 9999 SCT025 18/07 Q1020 NOSIG
過去の天気等 Google飛行場航空写真 Wunderground天気予報

過去48時間のMETAR

飛行場予報(TAF)
発表時間: 1/19 07:13 EET (1/19 05:13 UTC)
予報対象時間: 19日8時 EET ~ 20日14時 EET
風向・風速東 4m/s
視程6000m
なし
19日8時 EET ~ 19日10時 EET に一時的に
風向・風速不定 2m/s
19日11時 EET ~ 19日13時 EET に徐々に
風向・風速北北東 5m/s
視程10km以上
全天の4割程度の雲 雲底高度 760m
TAF HECA 190513Z 1906/2012 10008KT 6000 NSC
TEMPO 1906/1908 VRB03KT 4000BR
BECMG 1909/1911 02010KT 9999 SCT025